createdAt,value
2017-07-15T00:01:29.828Z,99.90
2017-07-15T00:03:57.397Z,99.90
2017-07-15T00:06:25.007Z,99.90
2017-07-15T00:08:54.097Z,99.90
2017-07-15T00:11:22.471Z,99.90
2017-07-15T00:13:50.813Z,99.90
2017-07-15T00:16:18.372Z,99.90
2017-07-15T00:18:45.961Z,99.90
2017-07-15T00:21:13.537Z,99.90
2017-07-15T00:23:42.171Z,99.90
2017-07-15T00:26:09.751Z,99.90
2017-07-15T00:28:37.340Z,99.90
2017-07-15T00:31:05.698Z,99.90
2017-07-15T00:33:33.271Z,99.90
2017-07-15T00:36:00.840Z,99.90
2017-07-15T00:38:29.283Z,99.90
2017-07-15T00:40:56.839Z,99.90
2017-07-15T00:43:24.420Z,99.90
2017-07-15T00:45:51.995Z,99.90
2017-07-15T00:48:19.580Z,99.90
2017-07-15T00:50:47.910Z,99.90
2017-07-15T00:53:15.543Z,99.90
2017-07-15T00:55:43.196Z,99.90
2017-07-15T00:58:10.777Z,99.90
2017-07-15T01:00:38.349Z,99.90
2017-07-15T01:03:05.934Z,99.90
2017-07-15T01:05:33.497Z,99.90
2017-07-15T01:08:01.091Z,99.90
2017-07-15T01:10:29.431Z,99.90
2017-07-15T01:12:57.007Z,99.90
2017-07-15T01:15:24.583Z,99.90
2017-07-15T01:17:52.159Z,99.90
2017-07-15T01:20:20.563Z,99.90
2017-07-15T01:22:48.142Z,99.90
2017-07-15T01:25:15.731Z,99.90
2017-07-15T01:27:43.314Z,99.90
2017-07-15T01:30:11.638Z,99.90
2017-07-15T01:32:39.236Z,99.90
2017-07-15T01:35:06.803Z,99.90
2017-07-15T01:37:34.490Z,99.90
2017-07-15T01:40:02.854Z,99.90
2017-07-15T01:42:30.403Z,99.90
2017-07-15T01:44:57.971Z,99.90
2017-07-15T01:47:25.619Z,99.90
2017-07-15T01:49:53.207Z,99.90
2017-07-15T01:52:21.544Z,99.90
2017-07-15T01:54:49.200Z,99.90
2017-07-15T01:57:16.787Z,99.90
2017-07-15T01:59:44.359Z,99.90
2017-07-15T02:02:11.940Z,99.90
2017-07-15T02:04:40.683Z,99.90
2017-07-15T02:07:08.262Z,99.90
2017-07-15T02:09:35.824Z,99.90
2017-07-15T02:12:03.396Z,99.90
2017-07-15T02:14:30.975Z,99.90
2017-07-15T02:16:59.342Z,99.90
2017-07-15T02:19:26.936Z,99.90
2017-07-15T02:21:54.530Z,99.90
2017-07-15T02:24:22.111Z,99.90
2017-07-15T02:26:49.679Z,99.90
2017-07-15T02:29:17.267Z,99.90
2017-07-15T02:31:45.595Z,99.90
2017-07-15T02:34:13.328Z,99.90
2017-07-15T02:36:40.907Z,99.90
2017-07-15T02:39:08.474Z,99.90
2017-07-15T02:41:36.027Z,99.90
2017-07-15T02:44:03.622Z,99.90
2017-07-15T02:46:31.223Z,99.90
2017-07-15T02:48:58.815Z,99.90
2017-07-15T02:51:26.395Z,99.90
2017-07-15T02:53:53.967Z,99.90
2017-07-15T02:56:21.543Z,99.90
2017-07-15T02:58:49.121Z,99.90
2017-07-15T03:01:17.451Z,99.90
2017-07-15T03:03:45.011Z,99.90
2017-07-15T03:06:12.607Z,99.90
2017-07-15T03:08:40.165Z,99.90
2017-07-15T03:11:07.739Z,99.90
2017-07-15T03:13:35.307Z,99.90
2017-07-15T03:16:02.862Z,99.90
2017-07-15T03:18:31.215Z,99.90
2017-07-15T03:20:58.774Z,99.90
2017-07-15T03:23:26.359Z,99.90
2017-07-15T03:25:54.699Z,99.90
2017-07-15T03:28:22.284Z,99.90
2017-07-15T03:30:49.835Z,99.90
2017-07-15T03:33:17.455Z,99.90
2017-07-15T03:35:45.022Z,99.90
2017-07-15T03:38:12.626Z,99.90
2017-07-15T03:40:40.203Z,99.90
2017-07-15T03:43:08.540Z,99.90
2017-07-15T03:45:36.175Z,99.90
2017-07-15T03:48:03.757Z,99.90
2017-07-15T03:50:31.373Z,99.90
2017-07-15T03:52:59.730Z,99.90
2017-07-15T03:55:27.333Z,99.90
2017-07-15T03:57:54.906Z,99.90
2017-07-15T04:00:22.479Z,99.90
2017-07-15T04:02:50.091Z,99.90
2017-07-15T04:05:18.443Z,99.90
2017-07-15T04:07:46.025Z,99.90
2017-07-15T04:10:13.575Z,99.90
2017-07-15T04:12:41.159Z,99.90
2017-07-15T04:15:09.502Z,99.90
2017-07-15T04:17:37.062Z,99.90
2017-07-15T04:20:04.635Z,99.90
2017-07-15T04:22:32.209Z,99.90
2017-07-15T04:25:00.548Z,99.90
2017-07-15T04:27:28.118Z,99.90
2017-07-15T04:29:55.695Z,99.90
2017-07-15T04:32:23.246Z,99.90
2017-07-15T04:34:50.831Z,99.90
2017-07-15T04:37:18.416Z,99.90
2017-07-15T04:39:46.806Z,99.90
2017-07-15T04:42:14.365Z,99.90
2017-07-15T04:44:41.934Z,99.90
2017-07-15T04:47:09.525Z,99.90
2017-07-15T04:49:37.078Z,99.90
2017-07-15T04:52:04.639Z,99.90
2017-07-15T04:54:32.973Z,99.90
2017-07-15T04:57:01.330Z,99.90
2017-07-15T04:59:28.891Z,99.90
2017-07-15T05:01:56.494Z,99.90
2017-07-15T05:04:24.067Z,99.90
2017-07-15T05:06:51.658Z,99.90
2017-07-15T05:09:19.218Z,99.90
2017-07-15T05:11:46.818Z,99.90
2017-07-15T05:14:15.148Z,99.90
2017-07-15T05:16:42.731Z,99.90
2017-07-15T05:19:10.287Z,99.90
2017-07-15T05:21:37.851Z,99.90
2017-07-15T05:24:05.431Z,99.90
2017-07-15T05:26:33.001Z,99.90
2017-07-15T05:29:00.550Z,99.90
2017-07-15T05:31:28.087Z,99.90
2017-07-15T05:33:55.649Z,99.90
2017-07-15T05:36:23.226Z,99.90
2017-07-15T05:38:50.796Z,99.90
2017-07-15T05:41:18.438Z,99.90
2017-07-15T05:43:46.026Z,99.90
2017-07-15T05:46:13.688Z,99.10
2017-07-15T05:48:41.266Z,98.10
2017-07-15T05:51:09.606Z,98.20
2017-07-15T05:53:37.183Z,98.20
2017-07-15T05:56:04.739Z,97.60
2017-07-15T05:58:32.388Z,97.80
2017-07-15T06:00:59.984Z,98.70
2017-07-15T06:03:28.323Z,99.40
2017-07-15T06:05:55.961Z,99.30
2017-07-15T06:08:23.711Z,98.80
2017-07-15T06:10:52.039Z,99.20
2017-07-15T06:13:19.633Z,99.20
2017-07-15T06:15:47.201Z,98.50
2017-07-15T06:18:15.594Z,94.20
2017-07-15T06:20:43.954Z,93.60
2017-07-15T06:23:11.674Z,93.50
2017-07-15T06:25:39.281Z,91.10
2017-07-15T06:28:06.858Z,86.90
2017-07-15T06:30:35.305Z,88.90
2017-07-15T06:33:02.891Z,89.00
2017-07-15T06:35:30.483Z,90.30
2017-07-15T06:37:58.073Z,90.60
2017-07-15T06:40:25.653Z,90.70
2017-07-15T06:42:53.225Z,91.20
2017-07-15T06:45:20.892Z,90.60
2017-07-15T06:47:48.547Z,86.90
2017-07-15T06:50:16.136Z,82.80
2017-07-15T06:52:44.470Z,85.50
2017-07-15T06:55:13.411Z,85.50
2017-07-15T06:57:41.017Z,88.00
2017-07-15T07:00:08.611Z,86.10
2017-07-15T07:02:36.175Z,90.50
2017-07-15T07:05:03.731Z,89.40
2017-07-15T07:07:31.298Z,90.40
2017-07-15T07:09:58.883Z,90.90
2017-07-15T07:12:27.226Z,91.40
2017-07-15T07:14:54.790Z,91.40
2017-07-15T07:17:22.383Z,90.50
2017-07-15T07:19:50.830Z,90.40
2017-07-15T07:22:18.377Z,90.30
2017-07-15T07:24:46.010Z,89.50
2017-07-15T07:27:14.359Z,88.40
2017-07-15T07:29:42.496Z,88.40
2017-07-15T07:32:10.056Z,84.40
2017-07-15T07:34:37.719Z,82.70
2017-07-15T07:37:05.338Z,79.30
2017-07-15T07:39:33.686Z,80.10
2017-07-15T07:42:01.259Z,80.10
2017-07-15T07:44:28.818Z,78.80
2017-07-15T07:46:56.579Z,76.30
2017-07-15T07:49:24.148Z,73.10
2017-07-15T07:51:51.803Z,71.30
2017-07-15T07:54:19.375Z,74.00
2017-07-15T07:56:46.936Z,78.20
2017-07-15T07:59:14.614Z,77.40
2017-07-15T08:01:42.951Z,75.20
2017-07-15T08:04:10.538Z,75.00
2017-07-15T08:06:38.103Z,70.90
2017-07-15T08:09:05.656Z,68.40
2017-07-15T08:11:33.254Z,63.90
2017-07-15T08:14:00.866Z,60.70
2017-07-15T08:16:28.465Z,55.80
2017-07-15T08:18:56.040Z,54.80
2017-07-15T08:21:24.385Z,51.00
2017-07-15T08:23:51.956Z,50.90
2017-07-15T08:26:19.532Z,51.20
2017-07-15T08:28:47.083Z,49.30
2017-07-15T08:31:14.667Z,47.40
2017-07-15T08:33:43.001Z,49.60
2017-07-15T08:36:10.579Z,49.50
2017-07-15T08:38:38.722Z,51.00
2017-07-15T08:41:06.334Z,52.40
2017-07-15T08:43:33.948Z,52.00
2017-07-15T08:46:01.504Z,55.30
2017-07-15T08:48:29.081Z,57.30
2017-07-15T08:50:56.668Z,53.70
2017-07-15T08:53:24.359Z,51.30
2017-07-15T08:55:52.861Z,46.30
2017-07-15T08:58:20.423Z,45.50
2017-07-15T09:00:48.023Z,44.20
2017-07-15T09:03:15.681Z,45.60
2017-07-15T09:05:43.254Z,48.80
2017-07-15T09:08:10.911Z,50.00
2017-07-15T09:10:38.482Z,52.20
2017-07-15T09:13:06.063Z,47.80
2017-07-15T09:15:33.778Z,46.60
2017-07-15T09:18:01.375Z,44.20
2017-07-15T09:20:29.720Z,48.60
2017-07-15T09:22:57.377Z,48.30
2017-07-15T09:25:24.937Z,48.00
2017-07-15T09:27:52.583Z,51.50
2017-07-15T09:30:20.137Z,52.90
2017-07-15T09:32:47.718Z,51.00
2017-07-15T09:35:15.314Z,49.10
2017-07-15T09:37:42.882Z,47.00
2017-07-15T09:40:10.955Z,42.90
2017-07-15T09:42:38.541Z,42.80
2017-07-15T09:45:06.868Z,47.70
2017-07-15T09:47:34.447Z,47.60
2017-07-15T09:50:02.012Z,49.80
2017-07-15T09:52:29.572Z,50.60
2017-07-15T09:54:57.186Z,47.80
2017-07-15T09:57:24.796Z,44.40
2017-07-15T09:59:52.355Z,42.50
2017-07-15T10:02:19.931Z,44.00
2017-07-15T10:04:47.523Z,47.80
2017-07-15T10:07:15.925Z,48.40
2017-07-15T10:09:43.499Z,48.40
2017-07-15T10:12:11.113Z,46.20
2017-07-15T10:14:38.665Z,45.30
2017-07-15T10:17:06.223Z,42.80
2017-07-15T10:19:33.804Z,45.60
2017-07-15T10:22:01.387Z,43.60
2017-07-15T10:24:28.999Z,44.90
2017-07-15T10:26:56.561Z,41.90
2017-07-15T10:29:24.162Z,39.40
2017-07-15T10:31:51.757Z,39.60
2017-07-15T10:34:19.323Z,40.50
2017-07-15T10:36:47.730Z,41.40
2017-07-15T10:39:15.310Z,41.40
2017-07-15T10:41:43.225Z,37.80
2017-07-15T10:44:10.829Z,37.70
2017-07-15T10:46:38.543Z,40.50
2017-07-15T10:49:06.178Z,40.60
2017-07-15T10:51:33.698Z,42.30
2017-07-15T10:54:01.285Z,41.30
2017-07-15T10:56:28.839Z,42.00
2017-07-15T10:58:56.410Z,43.50
2017-07-15T11:01:24.031Z,41.70
2017-07-15T11:03:51.608Z,40.80
2017-07-15T11:06:19.201Z,41.90
2017-07-15T11:08:46.776Z,44.60
2017-07-15T11:11:15.144Z,45.50
2017-07-15T11:13:43.629Z,42.60
2017-07-15T11:16:11.199Z,42.40
2017-07-15T11:18:39.534Z,36.60
2017-07-15T11:21:07.139Z,36.60
2017-07-15T11:23:34.727Z,36.80
2017-07-15T11:26:03.058Z,38.40
2017-07-15T11:28:30.610Z,38.40
2017-07-15T11:30:58.196Z,40.40
2017-07-15T11:33:25.780Z,39.90
2017-07-15T11:35:53.351Z,43.60
2017-07-15T11:38:21.704Z,47.90
2017-07-15T11:40:49.389Z,47.90
2017-07-15T11:43:17.772Z,48.20
2017-07-15T11:45:46.114Z,49.90
2017-07-15T11:48:13.681Z,49.90
2017-07-15T11:50:41.295Z,50.10
2017-07-15T11:53:09.644Z,46.50
2017-07-15T11:55:37.230Z,46.20
2017-07-15T11:58:05.580Z,40.00
2017-07-15T12:00:33.200Z,39.90
2017-07-15T12:03:00.759Z,42.10
2017-07-15T12:05:28.347Z,45.30
2017-07-15T12:07:55.905Z,45.60
2017-07-15T12:10:23.556Z,47.10
2017-07-15T12:12:51.649Z,46.80
2017-07-15T12:15:19.245Z,46.70
2017-07-15T12:17:46.823Z,48.80
2017-07-15T12:20:15.152Z,49.20
2017-07-15T12:22:42.768Z,49.20
2017-07-15T12:25:11.133Z,51.80
2017-07-15T12:27:38.724Z,51.60
2017-07-15T12:30:07.040Z,49.70
2017-07-15T12:32:34.605Z,49.80
2017-07-15T12:35:02.167Z,48.20
2017-07-15T12:37:29.846Z,43.90
2017-07-15T12:39:58.570Z,40.00
2017-07-15T12:42:26.920Z,40.90
2017-07-15T12:44:54.499Z,40.90
2017-07-15T12:47:22.143Z,41.30
2017-07-15T12:49:49.711Z,39.50
2017-07-15T12:52:17.291Z,40.10
2017-07-15T12:54:44.866Z,39.30
2017-07-15T12:57:13.203Z,37.00
2017-07-15T12:59:40.773Z,37.10
2017-07-15T13:02:08.355Z,36.50
2017-07-15T13:04:35.948Z,37.50
2017-07-15T13:07:03.515Z,37.80
2017-07-15T13:09:31.083Z,38.70
2017-07-15T13:11:58.659Z,40.10
2017-07-15T13:14:26.229Z,37.70
2017-07-15T13:16:53.832Z,37.70
2017-07-15T13:19:21.387Z,39.30
2017-07-15T13:21:48.949Z,37.20
2017-07-15T13:24:16.507Z,40.00
2017-07-15T13:26:44.082Z,39.00
2017-07-15T13:29:11.763Z,38.20
2017-07-15T13:31:40.091Z,41.40
2017-07-15T13:34:07.672Z,41.30
2017-07-15T13:36:35.243Z,40.40
2017-07-15T13:39:02.810Z,42.70
2017-07-15T13:41:30.355Z,40.00
2017-07-15T13:43:58.168Z,41.70
2017-07-15T13:46:27.074Z,41.70
2017-07-15T13:48:54.764Z,41.70
2017-07-15T13:51:22.343Z,41.50
2017-07-15T13:53:49.903Z,42.60
2017-07-15T13:56:17.498Z,42.40
2017-07-15T13:58:45.821Z,40.80
2017-07-15T14:01:13.407Z,40.80
2017-07-15T14:03:40.998Z,40.70
2017-07-15T14:06:08.569Z,41.50
2017-07-15T14:08:36.891Z,41.10
2017-07-15T14:11:04.470Z,41.00
2017-07-15T14:13:32.155Z,42.50
2017-07-15T14:15:59.738Z,42.20
2017-07-15T14:18:28.060Z,42.80
2017-07-15T14:20:55.629Z,42.10
2017-07-15T14:23:23.192Z,41.60
2017-07-15T14:25:50.762Z,43.70
2017-07-15T14:28:18.399Z,43.30
2017-07-15T14:30:45.980Z,40.70
2017-07-15T14:33:13.538Z,41.50
2017-07-15T14:35:41.145Z,42.10
2017-07-15T14:38:08.785Z,43.90
2017-07-15T14:40:36.367Z,44.30
2017-07-15T14:43:03.948Z,45.30
2017-07-15T14:45:32.298Z,45.30
2017-07-15T14:48:00.022Z,45.20
2017-07-15T14:50:27.571Z,44.60
2017-07-15T14:52:55.911Z,43.00
2017-07-15T14:55:23.499Z,43.10
2017-07-15T14:57:51.820Z,40.80
2017-07-15T15:00:19.387Z,40.90
2017-07-15T15:02:46.964Z,41.40
2017-07-15T15:05:14.679Z,42.40
2017-07-15T15:07:43.083Z,41.10
2017-07-15T15:10:10.661Z,41.10
2017-07-15T15:12:38.414Z,41.20
2017-07-15T15:15:05.981Z,40.70
2017-07-15T15:17:33.749Z,39.80
2017-07-15T15:20:01.342Z,40.60
2017-07-15T15:22:28.905Z,41.40
2017-07-15T15:24:56.542Z,43.10
2017-07-15T15:27:24.102Z,42.80
2017-07-15T15:29:51.673Z,43.20
2017-07-15T15:32:19.392Z,44.40
2017-07-15T15:34:47.716Z,42.80
2017-07-15T15:37:15.376Z,42.80
2017-07-15T15:39:42.945Z,41.90
2017-07-15T15:42:10.517Z,42.70
2017-07-15T15:44:38.858Z,43.20
2017-07-15T15:47:06.441Z,43.30
2017-07-15T15:49:34.706Z,44.40
2017-07-15T15:52:02.303Z,46.60
2017-07-15T15:54:30.751Z,48.50
2017-07-15T15:56:58.319Z,48.00
2017-07-15T15:59:25.942Z,48.20
2017-07-15T16:01:53.516Z,49.20
2017-07-15T16:04:21.132Z,49.60
2017-07-15T16:06:49.529Z,48.20
2017-07-15T16:09:17.980Z,47.30
2017-07-15T16:11:46.533Z,47.30
2017-07-15T16:14:14.096Z,48.30
2017-07-15T16:16:41.660Z,47.70
2017-07-15T16:19:09.251Z,46.50
2017-07-15T16:21:36.811Z,46.60
2017-07-15T16:24:04.391Z,47.20
2017-07-15T16:26:33.414Z,50.90
2017-07-15T16:29:01.011Z,50.40
2017-07-15T16:31:28.673Z,48.50
2017-07-15T16:33:56.243Z,48.70
2017-07-15T16:36:23.825Z,49.60
2017-07-15T16:38:51.410Z,50.60
2017-07-15T16:41:19.759Z,48.40
2017-07-15T16:43:47.335Z,48.20
2017-07-15T16:46:14.955Z,51.20
2017-07-15T16:48:42.583Z,50.70
2017-07-15T16:51:10.962Z,49.70
2017-07-15T16:53:39.343Z,50.50
2017-07-15T16:56:08.666Z,50.90
2017-07-15T16:58:36.246Z,50.80
2017-07-15T17:01:03.838Z,52.70
2017-07-15T17:03:31.409Z,53.20
2017-07-15T17:05:59.034Z,52.60
2017-07-15T17:08:26.607Z,52.20
2017-07-15T17:10:54.944Z,54.70
2017-07-15T17:13:22.619Z,53.90
2017-07-15T17:15:50.284Z,53.10
2017-07-15T17:18:17.927Z,53.30
2017-07-15T17:20:45.497Z,53.00
2017-07-15T17:23:13.093Z,53.90
2017-07-15T17:25:40.699Z,52.70
2017-07-15T17:28:08.320Z,54.20
2017-07-15T17:30:35.889Z,53.80
2017-07-15T17:33:03.453Z,55.00
2017-07-15T17:35:31.850Z,55.70
2017-07-15T17:38:00.186Z,55.80
2017-07-15T17:40:27.820Z,55.50
2017-07-15T17:42:55.437Z,55.90
2017-07-15T17:45:23.799Z,56.90
2017-07-15T17:47:51.400Z,56.80
2017-07-15T17:50:19.721Z,55.30
2017-07-15T17:52:47.381Z,55.30
2017-07-15T17:55:14.964Z,56.30
2017-07-15T17:57:42.622Z,55.20
2017-07-15T18:00:10.252Z,55.90
2017-07-15T18:02:37.827Z,57.70
2017-07-15T18:05:05.451Z,58.50
2017-07-15T18:07:33.816Z,58.40
2017-07-15T18:10:01.409Z,58.40
2017-07-15T18:12:29.767Z,58.20
2017-07-15T18:14:57.355Z,58.10
2017-07-15T18:17:24.942Z,59.30
2017-07-15T18:19:52.604Z,60.80
2017-07-15T18:22:20.286Z,59.10
2017-07-15T18:24:47.889Z,60.30
2017-07-15T18:27:15.443Z,60.70
2017-07-15T18:29:43.021Z,61.80
2017-07-15T18:32:11.483Z,61.40
2017-07-15T18:34:39.075Z,61.30
2017-07-15T18:37:07.503Z,63.70
2017-07-15T18:39:35.167Z,63.70
2017-07-15T18:42:02.782Z,62.80
2017-07-15T18:44:30.432Z,62.70
2017-07-15T18:46:58.808Z,63.10
2017-07-15T18:49:26.419Z,63.00
2017-07-15T18:51:54.188Z,64.40
2017-07-15T18:54:21.807Z,64.50
2017-07-15T18:56:49.501Z,63.40
2017-07-15T18:59:17.084Z,64.80
2017-07-15T19:01:44.699Z,63.10
2017-07-15T19:04:12.363Z,63.90
2017-07-15T19:06:40.065Z,63.80
2017-07-15T19:09:07.671Z,63.80
2017-07-15T19:11:35.320Z,63.90
2017-07-15T19:14:02.888Z,64.10
2017-07-15T19:16:30.472Z,64.60
2017-07-15T19:18:58.036Z,63.90
2017-07-15T19:21:25.611Z,64.40
2017-07-15T19:23:53.963Z,63.70
2017-07-15T19:26:21.526Z,62.90
2017-07-15T19:28:49.120Z,64.00
2017-07-15T19:31:17.727Z,63.70
2017-07-15T19:33:45.282Z,63.70
2017-07-15T19:36:12.872Z,65.00
2017-07-15T19:38:40.434Z,65.60
2017-07-15T19:41:08.058Z,64.30
2017-07-15T19:43:36.419Z,64.70
2017-07-15T19:46:03.985Z,64.70
2017-07-15T19:48:31.543Z,65.10
2017-07-15T19:50:59.276Z,64.60
2017-07-15T19:53:26.848Z,65.70
2017-07-15T19:55:55.078Z,66.30
2017-07-15T19:58:25.390Z,67.60
2017-07-15T20:00:53.163Z,67.20
2017-07-15T20:03:21.646Z,68.00
2017-07-15T20:05:49.276Z,67.90
2017-07-15T20:08:17.536Z,67.80
2017-07-15T20:10:45.457Z,66.60
2017-07-15T20:13:13.115Z,67.30
2017-07-15T20:15:40.744Z,66.60
2017-07-15T20:18:08.395Z,66.20
2017-07-15T20:20:36.033Z,66.50
2017-07-15T20:23:03.647Z,66.70
2017-07-15T20:25:31.226Z,67.10
2017-07-15T20:27:58.988Z,66.50
2017-07-15T20:30:26.684Z,67.20
2017-07-15T20:32:54.328Z,66.00
2017-07-15T20:35:21.973Z,66.70
2017-07-15T20:37:49.560Z,66.70
2017-07-15T20:40:17.302Z,66.90
2017-07-15T20:42:45.690Z,66.90
2017-07-15T20:45:13.339Z,66.90
2017-07-15T20:47:41.656Z,69.10
2017-07-15T20:50:09.275Z,68.90
2017-07-15T20:52:43.337Z,68.10
2017-07-15T20:55:11.000Z,68.00
2017-07-15T20:57:38.635Z,67.90
2017-07-15T21:00:06.314Z,69.10
2017-07-15T21:02:33.941Z,68.70
2017-07-15T21:05:01.638Z,68.80
2017-07-15T21:07:29.340Z,69.80
2017-07-15T21:09:57.021Z,70.60
2017-07-15T21:12:24.801Z,71.10
2017-07-15T21:14:52.473Z,71.30
2017-07-15T21:17:21.003Z,69.80
2017-07-15T21:19:48.792Z,69.80
2017-07-15T21:22:16.400Z,69.40
2017-07-15T21:24:44.842Z,69.50
2017-07-15T21:27:12.427Z,69.50
2017-07-15T21:29:40.831Z,70.00
2017-07-15T21:32:08.512Z,69.80
2017-07-15T21:34:36.131Z,70.70
2017-07-15T21:37:03.782Z,70.90
2017-07-15T21:39:31.500Z,72.70
2017-07-15T21:42:00.074Z,71.70
2017-07-15T21:44:27.781Z,72.30
2017-07-15T21:46:55.519Z,73.20
2017-07-15T21:49:23.437Z,72.10
2017-07-15T21:51:51.110Z,72.50
2017-07-15T21:54:18.786Z,71.40
2017-07-15T21:56:47.162Z,71.80
2017-07-15T21:59:15.519Z,71.70
2017-07-15T22:01:43.192Z,71.70
2017-07-15T22:04:10.812Z,71.80
2017-07-15T22:06:38.535Z,71.70
2017-07-15T22:09:06.095Z,72.50
2017-07-15T22:11:33.745Z,72.70
2017-07-15T22:14:01.340Z,72.00
2017-07-15T22:16:29.680Z,72.30
2017-07-15T22:18:57.243Z,72.30
2017-07-15T22:21:24.899Z,71.90
2017-07-15T22:23:54.205Z,69.90
2017-07-15T22:26:21.760Z,70.60
2017-07-15T22:28:49.338Z,71.00
2017-07-15T22:31:17.096Z,71.20
2017-07-15T22:33:44.734Z,69.40
2017-07-15T22:36:12.384Z,69.90
2017-07-15T22:38:40.056Z,70.20
2017-07-15T22:41:07.658Z,69.70
2017-07-15T22:43:36.166Z,69.90
2017-07-15T22:46:04.541Z,70.40
2017-07-15T22:48:32.484Z,70.50
2017-07-15T22:51:00.065Z,70.30
2017-07-15T22:53:27.647Z,70.70
2017-07-15T22:55:55.995Z,71.00
2017-07-15T22:58:23.592Z,71.10
2017-07-15T23:00:51.914Z,71.30
2017-07-15T23:03:19.511Z,71.20
2017-07-15T23:05:47.198Z,72.80
2017-07-15T23:08:14.887Z,72.40
2017-07-15T23:10:42.605Z,72.70
2017-07-15T23:13:10.257Z,72.00
2017-07-15T23:15:37.859Z,74.10
2017-07-15T23:18:15.359Z,73.60
2017-07-15T23:20:42.943Z,73.90
2017-07-15T23:23:10.498Z,74.10
2017-07-15T23:25:38.093Z,75.10
2017-07-15T23:28:05.659Z,75.40
2017-07-15T23:30:33.250Z,75.20
2017-07-15T23:33:01.618Z,74.80
2017-07-15T23:35:29.187Z,74.80
2017-07-15T23:37:56.781Z,75.70
2017-07-15T23:40:24.356Z,76.90
2017-07-15T23:42:51.943Z,76.70
2017-07-15T23:45:19.503Z,78.00
2017-07-15T23:47:47.068Z,77.70
2017-07-15T23:50:14.674Z,77.60
2017-07-15T23:52:43.023Z,78.40
2017-07-15T23:55:10.626Z,78.40
2017-07-15T23:57:38.174Z,78.30
